Time;durP1;ratioP1;P1;durP2;ratioP2;P2;SDS_P1;SDS_P2;PMS_P1;PMS_P2;Temp;Humidity;BMP_temperature;BMP_pressure;BME280_temperature;BME280_humidity;BME280_pressure;Samples;Min_cycle;Max_cycle;Signal;HPM_P1;HPM_P2
2022/11/05 00:10:58;;;;;;;6.03;3.13;;;7.40;99.90;;;;;;5090973;28;20044;-51
2022/11/05 00:19:08;;;;;;;11.70;4.10;;;7.40;99.90;;;;;;5091014;28;20126;-52
2022/11/05 00:27:04;;;;;;;12.05;3.10;;;7.30;99.90;;;;;;5091583;28;20040;-52
2022/11/05 00:29:30;;;;;;;9.10;3.72;;;7.20;99.90;;;;;;5102466;28;20024;-51
2022/11/05 00:31:55;;;;;;;7.30;3.50;;;7.20;99.90;;;;;;5091748;28;20111;-50
2022/11/05 00:34:21;;;;;;;10.67;3.93;;;7.20;99.90;;;;;;5091734;28;20617;-53
2022/11/05 00:36:46;;;;;;;8.03;3.57;;;7.20;99.90;;;;;;5103401;28;20521;-51
2022/11/05 00:39:12;;;;;;;5.40;3.20;;;7.20;99.90;;;;;;5094374;28;20036;-52
2022/11/05 00:41:37;;;;;;;5.60;3.33;;;7.10;99.90;;;;;;5108049;28;20048;-50
2022/11/05 00:46:47;;;;;;;5.32;3.30;;;7.10;99.90;;;;;;5099801;28;20039;-51
2022/11/05 00:49:31;;;;;;;6.43;2.93;;;7.10;99.90;;;;;;5109294;28;20409;-51
2022/11/05 00:54:41;;;;;;;5.63;3.13;;;6.90;99.90;;;;;;5105362;28;20040;-54
2022/11/05 00:57:06;;;;;;;5.43;3.33;;;6.90;99.90;;;;;;5105818;28;20097;-54
2022/11/05 00:59:32;;;;;;;6.13;3.17;;;6.90;99.90;;;;;;5107586;28;20145;-52
2022/11/05 01:01:58;;;;;;;8.10;3.60;;;6.80;99.90;;;;;;5094834;28;20420;-52
2022/11/05 01:04:23;;;;;;;6.00;3.50;;;6.80;99.90;;;;;;5101705;28;20123;-52
2022/11/05 01:06:49;;;;;;;8.83;4.87;;;6.80;99.90;;;;;;5100443;28;20028;-49
2022/11/05 01:09:14;;;;;;;7.87;4.97;;;6.80;99.90;;;;;;5100502;28;20445;-50
2022/11/05 01:11:40;;;;;;;5.43;3.80;;;6.80;99.90;;;;;;5101059;28;20042;-47
2022/11/05 01:14:12;;;;;;;13.05;5.22;;;6.80;99.90;;;;;;5090304;28;20390;-50
2022/11/05 01:16:38;;;;;;;10.32;4.95;;;6.80;99.90;;;;;;5097981;28;20047;-50
2022/11/05 01:19:07;;;;;;;;;;;6.80;99.90;;;;;;5095296;28;20072;-49
2022/11/05 01:21:32;;;;;;;10.38;6.03;;;6.90;99.90;;;;;;5097988;28;19916;-48
2022/11/05 01:23:58;;;;;;;7.30;5.03;;;6.90;99.90;;;;;;5094468;28;20516;-49
2022/11/05 01:26:24;;;;;;;12.37;5.10;;;7.00;99.90;;;;;;5108892;28;20096;-50
2022/11/05 01:28:55;;;;;;;11.48;6.32;;;7.10;99.90;;;;;;5105191;28;20032;-50
2022/11/05 01:31:21;;;;;;;8.10;4.25;;;7.10;99.90;;;;;;5090218;28;20437;-50
2022/11/05 01:33:47;;;;;;;6.30;4.45;;;7.10;99.90;;;;;;5096706;28;20431;-47
2022/11/05 01:36:12;;;;;;;5.97;4.75;;;7.10;99.90;;;;;;5108608;28;20043;-50
2022/11/05 01:38:38;;;;;;;9.33;4.70;;;7.20;99.90;;;;;;5108552;28;20031;-49
2022/11/05 01:41:04;;;;;;;6.65;3.83;;;7.20;99.90;;;;;;5091006;28;20123;-49
2022/11/05 01:43:55;;;;;;;6.10;3.35;;;7.10;99.90;;;;;;5090443;28;20035;-50
2022/11/05 01:46:25;;;;;;;7.05;3.85;;;7.10;99.90;;;;;;5099245;28;20035;-50
2022/11/05 01:48:52;;;;;;;5.90;3.55;;;7.10;99.90;;;;;;5108629;28;20047;-49
2022/11/05 01:51:24;;;;;;;6.90;3.67;;;7.10;99.90;;;;;;5105400;28;20035;-50
2022/11/05 01:53:58;;;;;;;9.05;3.47;;;7.00;99.90;;;;;;5090615;28;20036;-49
2022/11/05 01:56:41;;;;;;;6.18;3.10;;;6.90;99.90;;;;;;5105636;28;20066;-48
2022/11/05 01:59:17;;;;;;;5.28;3.75;;;6.80;99.90;;;;;;5090665;28;20433;-51
2022/11/05 02:01:44;;;;;;;6.72;3.38;;;6.80;99.90;;;;;;5089458;28;20524;-49
2022/11/05 02:04:15;;;;;;;9.45;3.50;;;6.80;99.90;;;;;;5089366;28;20103;-50
2022/11/05 02:06:44;;;;;;;5.80;3.40;;;6.80;99.90;;;;;;5089706;28;20470;-49
2022/11/05 02:09:21;;;;;;;9.27;4.20;;;6.80;99.90;;;;;;5089586;28;20510;-48
2022/11/05 02:11:48;;;;;;;5.28;3.17;;;6.80;99.90;;;;;;5089574;28;20121;-50
2022/11/05 02:14:14;;;;;;;7.57;3.60;;;6.80;99.90;;;;;;5093013;28;20044;-50
2022/11/05 02:16:50;;;;;;;8.30;3.07;;;6.90;99.90;;;;;;5093030;28;20516;-49
2022/11/05 02:19:54;;;;;;;4.50;2.70;;;6.90;99.90;;;;;;5093075;28;20277;-49
2022/11/05 02:22:45;;;;;;;6.20;2.92;;;6.90;99.90;;;;;;5092980;28;20074;-48
2022/11/05 02:25:32;;;;;;;5.95;3.03;;;6.90;99.90;;;;;;5092705;28;20074;-49
2022/11/05 02:28:32;;;;;;;4.95;3.05;;;6.90;99.90;;;;;;5092961;28;20039;-50
2022/11/05 02:31:16;;;;;;;10.82;3.75;;;6.90;99.90;;;;;;5093042;28;20543;-50
2022/11/05 02:34:09;;;;;;;3.67;2.95;;;6.80;99.90;;;;;;5099702;28;20039;-52
2022/11/05 02:37:03;;;;;;;5.43;2.90;;;6.80;99.90;;;;;;5112671;28;20054;-49
2022/11/05 02:39:29;;;;;;;8.32;2.95;;;6.80;99.90;;;;;;5099423;28;20116;-49
2022/11/05 02:42:07;;;;;;;6.77;2.60;;;6.70;99.90;;;;;;5095325;28;20126;-50
2022/11/05 02:45:20;;;;;;;6.45;2.75;;;6.70;99.90;;;;;;5105589;28;20059;-49
2022/11/05 02:47:54;;;;;;;5.90;2.50;;;6.70;99.90;;;;;;5066310;28;20105;-53
2022/11/05 02:50:50;;;;;;;5.45;3.42;;;6.60;99.90;;;;;;5087235;28;20501;-50
2022/11/05 02:53:27;;;;;;;3.78;2.28;;;6.60;99.90;;;;;;5073174;28;20469;-50
2022/11/05 02:55:58;;;;;;;;;;;6.60;99.90;;;;;;5102166;28;20589;-52
2022/11/05 02:58:26;;;;;;;7.82;2.47;;;6.60;99.90;;;;;;5092376;28;19916;-53
2022/11/05 03:00:56;;;;;;;7.65;2.08;;;6.50;99.90;;;;;;5107450;28;20428;-49
2022/11/05 03:03:41;;;;;;;4.47;2.75;;;6.50;99.90;;;;;;5080336;28;20031;-51
2022/11/05 03:06:34;;;;;;;4.38;1.85;;;6.50;99.90;;;;;;5111091;28;20039;-49
2022/11/05 03:09:25;;;;;;;6.63;1.95;;;6.50;99.90;;;;;;5110769;28;20044;-50
2022/11/05 03:12:09;;;;;;;11.70;3.13;;;6.40;99.90;;;;;;5091934;28;20032;-53
2022/11/05 03:15:05;;;;;;;3.47;1.15;;;6.40;99.90;;;;;;5109171;28;20039;-53
2022/11/05 03:17:56;;;;;;;6.35;2.35;;;6.40;99.90;;;;;;5111524;28;20043;-51
2022/11/05 03:20:27;;;;;;;5.95;2.53;;;6.40;99.90;;;;;;5108565;28;20035;-50
2022/11/05 03:23:16;;;;;;;7.88;1.83;;;6.40;99.90;;;;;;5097786;28;20401;-54
2022/11/05 03:25:52;;;;;;;4.90;2.38;;;6.40;99.90;;;;;;5072527;28;20083;-53
2022/11/05 03:28:23;;;;;;;6.90;1.58;;;6.50;99.90;;;;;;5101009;28;20039;-49
2022/11/05 03:30:50;;;;;;;4.18;2.03;;;6.50;99.90;;;;;;5109763;28;20040;-47
2022/11/05 03:33:24;;;;;;;3.80;1.40;;;6.50;99.90;;;;;;5095510;28;20044;-48
2022/11/05 03:35:56;;;;;;;5.55;1.35;;;6.50;99.90;;;;;;5082980;28;20034;-49
2022/11/05 03:38:26;;;;;;;4.18;1.73;;;6.50;99.90;;;;;;5104652;28;20063;-49
2022/11/05 03:40:56;;;;;;;8.45;2.03;;;6.40;99.90;;;;;;5085613;28;20188;-49
2022/11/05 03:43:26;;;;;;;4.45;2.25;;;6.40;99.90;;;;;;5103806;28;20560;-49
2022/11/05 03:46:13;;;;;;;4.47;1.55;;;6.40;99.90;;;;;;5092421;28;20048;-48
2022/11/05 03:48:47;;;;;;;3.72;1.38;;;6.30;99.90;;;;;;5099284;28;20127;-47
2022/11/05 03:51:17;;;;;;;4.20;1.42;;;6.20;99.90;;;;;;5082697;28;20040;-47
2022/11/05 03:53:48;;;;;;;3.33;1.50;;;6.20;99.90;;;;;;5099759;28;20058;-50
2022/11/05 03:56:29;;;;;;;3.08;1.20;;;6.20;99.90;;;;;;5099049;28;20036;-49
2022/11/05 03:58:55;;;;;;;4.75;1.20;;;6.20;99.90;;;;;;5102555;28;20063;-49
2022/11/05 04:01:22;;;;;;;6.57;1.63;;;6.20;99.90;;;;;;5091617;28;20040;-49
2022/11/05 04:03:47;;;;;;;2.78;1.13;;;6.20;99.90;;;;;;5090927;28;20044;-50
2022/11/05 04:14:26;;;;;;;4.03;1.38;;;6.10;99.90;;;;;;5090010;28;20040;-49
2022/11/05 04:17:10;;;;;;;7.03;2.17;;;6.10;99.90;;;;;;5090743;28;20118;-50
2022/11/05 04:25:18;;;;;;;5.13;2.20;;;6.10;99.90;;;;;;5090782;28;20428;-50
2022/11/05 04:27:44;;;;;;;4.15;3.13;;;6.10;99.90;;;;;;5090655;28;20123;-48
2022/11/05 04:30:17;;;;;;;6.38;2.38;;;6.10;99.90;;;;;;5091592;28;20045;-49
2022/11/05 04:32:54;;;;;;;5.55;2.40;;;6.10;99.90;;;;;;5108849;28;20071;-50
2022/11/05 04:35:20;;;;;;;4.05;1.77;;;6.10;99.90;;;;;;5091953;28;20039;-47
2022/11/05 04:37:45;;;;;;;6.10;2.73;;;6.10;99.90;;;;;;5092846;28;20112;-49
2022/11/05 04:40:11;;;;;;;3.90;2.23;;;6.10;99.90;;;;;;5091911;28;20036;-50
2022/11/05 04:42:36;;;;;;;5.73;2.33;;;6.10;99.90;;;;;;5091959;28;20032;-49
2022/11/05 04:45:02;;;;;;;5.70;2.37;;;6.10;99.90;;;;;;5108890;28;20072;-50
2022/11/05 04:47:27;;;;;;;2.72;2.20;;;6.00;99.90;;;;;;5108790;28;20047;-51
2022/11/05 04:49:53;;;;;;;7.00;3.43;;;6.00;99.90;;;;;;5093286;28;20404;-49
2022/11/05 04:52:18;;;;;;;6.07;2.33;;;6.00;99.90;;;;;;5095790;28;20040;-49
2022/11/05 04:54:44;;;;;;;3.47;2.10;;;6.00;99.90;;;;;;5106776;28;20035;-49
2022/11/05 04:57:10;;;;;;;7.37;2.60;;;6.00;99.90;;;;;;5095238;28;20051;-49
2022/11/05 04:59:35;;;;;;;9.13;2.60;;;6.00;99.90;;;;;;5094998;28;20032;-49
2022/11/05 05:02:01;;;;;;;10.77;3.00;;;6.00;99.90;;;;;;5108960;28;20036;-49
2022/11/05 05:04:26;;;;;;;4.20;2.37;;;6.00;99.90;;;;;;5107930;28;20039;-50
2022/11/05 05:06:52;;;;;;;10.37;2.90;;;6.00;99.90;;;;;;5105853;28;20404;-49
2022/11/05 05:09:17;;;;;;;8.37;2.67;;;6.00;99.90;;;;;;5094734;28;20111;-51
2022/11/05 05:11:43;;;;;;;7.07;3.33;;;6.00;99.90;;;;;;5093348;28;20515;-49
2022/11/05 05:14:08;;;;;;;4.33;3.10;;;6.00;99.90;;;;;;5103858;28;20442;-50
2022/11/05 05:16:34;;;;;;;8.23;3.87;;;6.00;99.90;;;;;;5107428;28;20484;-51
2022/11/05 05:18:59;;;;;;;12.60;3.90;;;6.00;99.90;;;;;;5108307;28;20415;-50
2022/11/05 05:21:41;;;;;;;7.27;3.57;;;6.00;99.90;;;;;;5090286;28;20493;-52
2022/11/05 05:24:17;;;;;;;5.60;3.10;;;6.00;99.90;;;;;;5103252;28;20044;-51
2022/11/05 05:26:45;;;;;;;4.80;2.85;;;5.90;99.90;;;;;;5098713;28;20043;-49
2022/11/05 05:29:11;;;;;;;5.55;2.72;;;5.90;99.90;;;;;;5101141;28;20036;-50
2022/11/05 05:31:37;;;;;;;5.05;3.03;;;5.90;99.90;;;;;;5099326;28;20620;-51
2022/11/05 05:34:04;;;;;;;3.90;2.85;;;5.80;99.90;;;;;;5107372;28;20122;-54
2022/11/05 05:36:29;;;;;;;;;;;5.80;99.90;;;;;;5090377;28;20071;-52
2022/11/05 05:38:55;;;;;;;5.82;2.78;;;5.80;99.90;;;;;;5091792;28;20251;-51
2022/11/05 05:41:21;;;;;;;3.10;2.80;;;5.80;99.90;;;;;;5089619;28;20044;-53
2022/11/05 05:43:46;;;;;;;7.47;3.97;;;5.70;99.90;;;;;;5090688;28;20036;-53
2022/11/05 05:46:14;;;;;;;6.87;4.13;;;5.80;99.90;;;;;;5091441;28;20040;-53
2022/11/05 05:48:40;;;;;;;8.00;4.97;;;5.80;99.90;;;;;;5096946;28;20437;-50
2022/11/05 05:51:07;;;;;;;;;;;5.80;99.90;;;;;;5104525;28;20157;-49
2022/11/05 05:53:33;;;;;;;9.93;4.28;;;5.80;99.90;;;;;;5103746;28;19942;-49
2022/11/05 05:55:59;;;;;;;5.25;4.15;;;5.80;99.90;;;;;;5105138;28;20538;-49
2022/11/05 05:58:29;;;;;;;16.35;5.60;;;5.80;99.90;;;;;;5099411;28;20036;-48
2022/11/05 06:00:58;;;;;;;12.50;5.15;;;5.80;99.90;;;;;;5099040;28;20047;-49
2022/11/05 06:03:23;;;;;;;7.18;4.70;;;5.80;99.90;;;;;;5092847;28;20040;-49
2022/11/05 06:05:49;;;;;;;6.43;4.97;;;5.80;99.90;;;;;;5093394;28;20501;-49
2022/11/05 06:08:14;;;;;;;7.17;4.40;;;5.70;99.90;;;;;;5093316;28;20042;-47
2022/11/05 06:10:40;;;;;;;8.20;4.83;;;5.80;99.90;;;;;;5093219;28;20119;-49
2022/11/05 06:13:06;;;;;;;5.80;4.80;;;5.70;99.90;;;;;;5092207;28;20067;-48
2022/11/05 06:15:31;;;;;;;7.47;4.60;;;5.80;99.90;;;;;;5093179;28;20065;-49
2022/11/05 06:17:57;;;;;;;11.87;5.93;;;5.70;99.90;;;;;;5092880;28;20036;-51
2022/11/05 06:20:22;;;;;;;9.10;5.80;;;5.80;99.90;;;;;;5093516;28;20036;-50
2022/11/05 06:22:57;;;;;;;9.10;5.10;;;5.80;99.90;;;;;;5092737;28;20046;-50
2022/11/05 06:25:24;;;;;;;7.43;5.60;;;5.90;99.90;;;;;;5092819;28;20131;-48
2022/11/05 06:27:49;;;;;;;8.15;5.07;;;5.90;99.90;;;;;;5092381;28;20047;-51
2022/11/05 06:30:16;;;;;;;8.93;4.80;;;5.90;99.90;;;;;;5098176;28;20036;-49
2022/11/05 06:32:42;;;;;;;6.32;5.18;;;5.90;99.90;;;;;;5108035;28;20044;-50
2022/11/05 06:35:08;;;;;;;6.28;4.97;;;6.00;99.90;;;;;;5101475;28;20504;-49
2022/11/05 06:37:34;;;;;;;13.15;5.82;;;6.00;99.90;;;;;;5097004;28;20044;-51
2022/11/05 06:40:00;;;;;;;9.77;4.87;;;6.00;99.90;;;;;;5092738;28;20127;-51
2022/11/05 06:42:25;;;;;;;5.55;4.68;;;6.10;99.90;;;;;;5091002;28;20036;-51
2022/11/05 06:44:51;;;;;;;8.43;5.40;;;6.10;99.90;;;;;;5104642;28;20081;-49
2022/11/05 06:47:18;;;;;;;13.73;5.90;;;6.20;99.90;;;;;;5101496;28;20047;-50
2022/11/05 06:49:44;;;;;;;6.93;4.22;;;6.30;99.90;;;;;;5113005;28;20036;-50
2022/11/05 06:52:10;;;;;;;10.15;5.05;;;6.50;99.90;;;;;;5098340;28;20140;-49
2022/11/05 06:54:36;;;;;;;8.73;4.50;;;6.50;99.90;;;;;;5094853;28;20038;-50
2022/11/05 06:57:03;;;;;;;8.23;4.27;;;6.70;99.90;;;;;;5091351;28;20423;-49
2022/11/05 06:59:29;;;;;;;9.38;4.38;;;6.90;99.90;;;;;;5092279;28;20471;-49
2022/11/05 07:01:55;;;;;;;8.15;4.07;;;7.00;99.90;;;;;;5092431;28;20173;-48
2022/11/05 07:04:20;;;;;;;7.07;3.65;;;7.00;99.90;;;;;;5074620;28;20127;-51
2022/11/05 07:06:46;;;;;;;7.90;4.17;;;7.10;99.90;;;;;;5071824;28;20127;-51
2022/11/05 07:09:11;;;;;;;4.63;3.70;;;7.00;99.90;;;;;;5071877;28;20045;-49
2022/11/05 07:11:37;;;;;;;6.47;4.10;;;6.90;99.90;;;;;;5081920;28;20044;-47
2022/11/05 07:14:03;;;;;;;10.87;4.50;;;6.90;99.90;;;;;;5091698;28;20394;-50
2022/11/05 07:16:28;;;;;;;6.43;4.07;;;6.80;99.90;;;;;;5090355;28;20489;-49
2022/11/05 07:18:54;;;;;;;7.03;4.33;;;6.80;99.90;;;;;;5092324;28;20044;-50
2022/11/05 07:21:21;;;;;;;7.85;4.45;;;6.80;99.90;;;;;;5091677;28;20056;-51
2022/11/05 07:23:46;;;;;;;7.68;4.20;;;6.70;99.90;;;;;;5091314;28;20044;-50
2022/11/05 07:26:12;;;;;;;8.02;4.20;;;6.80;99.90;;;;;;5090906;28;20043;-53
2022/11/05 07:28:37;;;;;;;7.40;3.87;;;6.90;99.90;;;;;;5091903;28;20146;-52
2022/11/05 07:31:03;;;;;;;4.90;3.27;;;7.50;99.90;;;;;;5091653;28;20032;-48
2022/11/05 07:33:29;;;;;;;4.28;2.97;;;8.20;99.90;;;;;;5094841;28;20032;-50
2022/11/05 07:35:56;;;;;;;8.53;3.20;;;9.00;99.90;;;;;;5091445;28;20040;-50
2022/11/05 07:38:22;;;;;;;3.03;2.42;;;9.80;99.90;;;;;;5091233;28;20047;-52
2022/11/05 07:40:47;;;;;;;4.20;2.10;;;10.50;99.90;;;;;;5091000;28;20386;-52
2022/11/05 07:43:13;;;;;;;1.97;1.73;;;11.20;99.90;;;;;;5091103;28;20508;-49
2022/11/05 07:45:38;;;;;;;4.30;2.33;;;11.60;99.90;;;;;;5090860;28;20048;-51
2022/11/05 07:48:04;;;;;;;11.43;3.57;;;11.80;99.90;;;;;;5103921;28;20489;-49
2022/11/05 07:50:35;;;;;;;7.38;3.35;;;11.60;99.90;;;;;;5092672;28;20185;-50
2022/11/05 07:53:06;;;;;;;8.10;3.00;;;11.20;99.90;;;;;;5090298;28;20119;-52
2022/11/05 07:55:32;;;;;;;6.47;3.25;;;11.00;99.90;;;;;;5097135;28;20043;-48
2022/11/05 07:57:58;;;;;;;5.82;2.65;;;10.80;99.90;;;;;;5111385;28;20118;-49
2022/11/05 08:00:25;;;;;;;4.60;2.93;;;10.70;99.90;;;;;;5100580;28;20116;-53
2022/11/05 08:03:05;;;;;;;4.93;3.25;;;10.40;99.90;;;;;;5101976;28;20078;-55
2022/11/05 08:05:33;;;;;;;7.80;3.28;;;10.20;99.90;;;;;;5090854;28;20028;-53
2022/11/05 08:07:59;;;;;;;5.57;2.70;;;10.00;99.90;;;;;;5109487;28;20031;-54
2022/11/05 08:10:26;;;;;;;6.18;3.33;;;10.00;99.90;;;;;;5108881;28;20039;-51
2022/11/05 08:12:52;;;;;;;7.28;3.05;;;10.20;99.90;;;;;;5110891;28;20032;-55
2022/11/05 08:15:18;;;;;;;6.53;3.80;;;10.50;99.90;;;;;;5109243;28;20035;-53
2022/11/05 08:17:44;;;;;;;3.70;2.90;;;10.80;99.90;;;;;;5109657;28;20080;-50
2022/11/05 08:20:11;;;;;;;7.78;3.00;;;11.30;99.90;;;;;;5109006;28;20491;-51
2022/11/05 08:22:36;;;;;;;;;;;11.70;99.90;;;;;;5105190;28;20462;-51
2022/11/05 08:25:02;;;;;;;6.15;2.78;;;12.30;99.90;;;;;;5091099;28;19912;-54
2022/11/05 08:27:27;;;;;;;7.03;3.53;;;12.70;99.90;;;;;;5091503;28;20043;-52
2022/11/05 08:29:53;;;;;;;4.00;2.90;;;12.80;99.90;;;;;;5090753;28;20031;-52
2022/11/05 08:32:18;;;;;;;4.03;2.87;;;12.80;99.90;;;;;;5094090;28;20455;-51
2022/11/05 08:34:44;;;;;;;4.20;2.53;;;12.70;99.90;;;;;;5092858;28;20043;-51
2022/11/05 08:37:10;;;;;;;5.00;2.77;;;12.60;99.90;;;;;;5091438;28;20370;-54
2022/11/05 08:39:35;;;;;;;4.30;2.67;;;12.50;99.90;;;;;;5093369;28;20039;-49
2022/11/05 08:42:01;;;;;;;10.27;3.57;;;12.50;99.90;;;;;;5091308;28;20038;-50
2022/11/05 08:44:27;;;;;;;6.10;2.77;;;12.30;99.90;;;;;;5090116;28;20125;-51
2022/11/05 08:46:54;;;;;;;9.05;2.88;;;12.30;99.90;;;;;;5093907;28;20459;-52
2022/11/05 08:49:19;;;;;;;4.70;3.00;;;12.40;99.90;;;;;;5110377;28;20115;-52
2022/11/05 08:51:45;;;;;;;6.80;3.17;;;12.60;99.90;;;;;;5103726;28;20127;-52
2022/11/05 08:54:12;;;;;;;4.47;3.33;;;12.60;99.90;;;;;;5090031;28;20500;-51
2022/11/05 08:56:38;;;;;;;7.00;3.53;;;12.60;99.90;;;;;;5100677;28;20044;-51
2022/11/05 08:59:04;;;;;;;7.13;3.47;;;12.40;99.90;;;;;;5108893;28;20036;-52
2022/11/05 09:01:31;;;;;;;3.58;2.92;;;12.50;99.90;;;;;;5096308;28;20040;-53
2022/11/05 09:03:56;;;;;;;4.63;3.22;;;12.40;99.90;;;;;;5089999;28;20044;-51
2022/11/05 09:06:22;;;;;;;3.50;3.20;;;12.40;99.90;;;;;;5091182;28;20071;-53
2022/11/05 09:08:47;;;;;;;4.27;3.03;;;12.60;99.90;;;;;;5091412;28;20036;-51
2022/11/05 09:11:13;;;;;;;4.83;2.83;;;12.70;99.90;;;;;;5098393;28;20286;-51
2022/11/05 09:13:39;;;;;;;4.60;2.80;;;12.70;99.90;;;;;;5109845;28;20143;-52
2022/11/05 09:16:05;;;;;;;5.53;3.38;;;12.70;99.90;;;;;;5108811;28;20493;-51
2022/11/05 09:18:31;;;;;;;5.32;2.85;;;12.70;99.90;;;;;;5108114;28;20429;-50
2022/11/05 09:20:56;;;;;;;4.95;3.15;;;12.80;99.90;;;;;;5107419;28;20061;-50
2022/11/05 09:23:22;;;;;;;3.87;2.57;;;12.90;99.90;;;;;;5093339;28;20050;-50
2022/11/05 09:25:47;;;;;;;50.20;5.90;;;13.00;99.90;;;;;;5095163;28;20044;-49
2022/11/05 09:28:19;;;;;;;5.03;3.53;;;13.10;99.90;;;;;;5096442;28;20282;-51
2022/11/05 09:30:47;;;;;;;7.63;2.83;;;12.90;99.90;;;;;;5105742;28;20040;-50
2022/11/05 09:33:13;;;;;;;6.30;2.85;;;13.00;99.90;;;;;;5103906;28;20074;-53
2022/11/05 09:35:40;;;;;;;10.13;2.50;;;12.90;99.90;;;;;;5094087;28;20058;-49
2022/11/05 09:38:06;;;;;;;3.60;2.38;;;12.60;99.90;;;;;;5094849;28;20040;-50
2022/11/05 09:40:36;;;;;;;;;;;12.50;99.90;;;;;;5095576;28;20351;-50
2022/11/05 09:43:02;;;;;;;7.13;2.88;;;12.50;99.90;;;;;;5094300;28;20402;-52
2022/11/05 09:45:31;;;;;;;6.97;3.25;;;12.50;99.90;;;;;;5093461;28;20076;-53
2022/11/05 09:48:03;;;;;;;3.25;2.45;;;12.60;99.90;;;;;;5108518;28;20130;-50
2022/11/05 09:50:33;;;;;;;4.80;3.15;;;12.60;99.90;;;;;;5112290;28;20028;-52
2022/11/05 09:53:00;;;;;;;4.28;2.80;;;12.50;99.90;;;;;;5106499;28;20032;-51
2022/11/05 09:55:38;;;;;;;4.57;2.60;;;12.40;99.90;;;;;;5093530;28;20036;-51
2022/11/05 09:58:14;;;;;;;8.02;2.50;;;12.50;99.90;;;;;;5084854;28;20036;-50
2022/11/05 10:00:41;;;;;;;5.35;2.70;;;12.50;99.90;;;;;;5093385;28;20043;-50
2022/11/05 10:03:10;;;;;;;;;;;12.60;99.90;;;;;;5103034;28;20127;-50
2022/11/05 10:05:37;;;;;;;7.97;4.00;;;12.60;99.90;;;;;;5093662;28;19916;-53
2022/11/05 10:08:15;;;;;;;4.50;2.67;;;12.70;99.90;;;;;;5093862;28;20043;-50
2022/11/05 10:10:53;;;;;;;7.78;2.63;;;12.70;99.90;;;;;;5094400;28;20054;-55
2022/11/05 10:13:40;;;;;;;3.85;2.60;;;12.80;99.90;;;;;;5093579;28;20120;-50
2022/11/05 10:16:27;;;;;;;;;;;12.70;99.90;;;;;;5093819;28;20040;-52
2022/11/05 10:18:59;;;;;;;7.30;2.97;;;12.80;99.90;;;;;;5078854;28;19920;-51
2022/11/05 10:21:25;;;;;;;5.28;2.50;;;12.70;99.90;;;;;;5094118;28;20035;-52
2022/11/05 10:23:51;;;;;;;3.83;2.30;;;12.80;99.90;;;;;;5095659;28;20039;-50
2022/11/05 10:26:20;;;;;;;6.15;1.88;;;12.90;99.90;;;;;;5101114;28;20065;-54
2022/11/05 10:28:47;;;;;;;6.13;2.47;;;12.90;99.90;;;;;;5093099;28;20480;-53
2022/11/05 10:31:16;;;;;;;4.75;2.15;;;13.00;99.90;;;;;;5092269;28;20036;-54
2022/11/05 10:33:48;;;;;;;4.20;2.40;;;13.00;99.90;;;;;;5090229;28;20069;-53
2022/11/05 10:36:21;;;;;;;6.97;2.47;;;13.20;99.90;;;;;;5108118;28;20062;-54
2022/11/05 10:38:46;;;;;;;5.65;2.28;;;13.40;99.90;;;;;;5108980;28;20039;-53
2022/11/05 10:41:40;;;;;;;5.87;2.30;;;13.50;99.90;;;;;;5096646;28;20161;-53
2022/11/05 10:44:17;;;;;;;5.13;2.88;;;13.60;99.90;;;;;;5091512;28;20271;-52
2022/11/05 10:47:14;;;;;;;6.55;2.83;;;13.60;99.90;;;;;;5092152;28;20040;-55
2022/11/05 10:49:59;;;;;;;7.50;2.25;;;13.60;99.90;;;;;;5092270;28;20081;-52
2022/11/05 10:52:32;;;;;;;6.25;2.28;;;13.60;99.90;;;;;;5091463;28;20039;-52
2022/11/05 10:55:01;;;;;;;4.28;2.75;;;13.70;99.90;;;;;;5091842;28;20044;-54
2022/11/05 10:57:38;;;;;;;3.38;1.98;;;13.80;99.90;;;;;;5091937;28;20430;-50
2022/11/05 11:00:20;;;;;;;3.63;2.13;;;13.90;99.90;;;;;;5092112;28;20115;-51
2022/11/05 11:02:56;;;;;;;5.32;2.15;;;13.90;99.90;;;;;;5073138;28;20040;-51
2022/11/05 11:05:31;;;;;;;7.57;2.60;;;13.80;99.90;;;;;;5092214;28;20040;-51
2022/11/05 11:08:02;;;;;;;7.35;2.65;;;13.60;99.90;;;;;;5091722;28;20531;-50
2022/11/05 11:10:32;;;;;;;5.47;2.25;;;13.60;99.90;;;;;;5090720;28;20130;-52
2022/11/05 11:12:58;;;;;;;7.10;2.40;;;13.70;99.90;;;;;;5085367;28;20075;-51
2022/11/05 11:15:31;;;;;;;3.85;1.75;;;13.70;99.90;;;;;;5085856;28;20087;-52
2022/11/05 11:17:57;;;;;;;4.38;1.70;;;13.60;99.90;;;;;;5088458;28;20040;-53
2022/11/05 11:20:24;;;;;;;3.83;2.05;;;13.60;99.90;;;;;;5087562;28;20480;-51
2022/11/05 11:23:15;;;;;;;5.45;2.45;;;13.60;99.90;;;;;;5087315;28;20040;-53
2022/11/05 11:25:49;;;;;;;6.05;2.38;;;13.60;99.90;;;;;;5087596;28;20036;-53
2022/11/05 11:28:30;;;;;;;4.30;2.28;;;13.50;99.90;;;;;;5087782;28;20101;-52
2022/11/05 11:31:06;;;;;;;5.00;2.28;;;13.60;99.90;;;;;;5086935;28;20574;-53
2022/11/05 11:33:33;;;;;;;2.85;1.90;;;13.70;99.90;;;;;;5071364;28;20044;-51
2022/11/05 11:35:59;;;;;;;5.10;2.72;;;13.70;99.90;;;;;;5074156;28;20327;-53
2022/11/05 11:38:29;;;;;;;5.50;2.47;;;13.90;99.90;;;;;;5086897;28;20392;-53
2022/11/05 11:41:02;;;;;;;5.50;2.60;;;14.10;99.90;;;;;;5087183;28;20044;-54
2022/11/05 11:43:32;;;;;;;5.47;2.25;;;14.30;99.90;;;;;;5085496;28;20192;-50
2022/11/05 11:45:58;;;;;;;3.55;2.17;;;14.30;99.90;;;;;;5086725;28;20050;-53
2022/11/05 11:48:29;;;;;;;3.75;2.55;;;14.30;99.90;;;;;;5086720;28;20524;-52
2022/11/05 11:50:57;;;;;;;5.75;2.20;;;14.30;99.90;;;;;;5085789;28;20071;-53
2022/11/05 11:53:23;;;;;;;4.05;2.25;;;14.30;99.90;;;;;;5086549;28;20040;-53
2022/11/05 11:55:59;;;;;;;5.90;2.80;;;14.30;99.90;;;;;;5086845;28;20046;-52
2022/11/05 11:58:45;;;;;;;6.23;2.73;;;14.50;99.90;;;;;;5087313;28;20043;-51
2022/11/05 12:01:16;;;;;;;4.10;2.60;;;14.50;99.90;;;;;;5104916;28;20278;-55
2022/11/05 12:03:56;;;;;;;9.25;2.85;;;14.50;99.90;;;;;;5106444;28;20504;-54
2022/11/05 12:06:57;;;;;;;4.68;2.35;;;14.40;99.90;;;;;;5085414;28;20401;-52
2022/11/05 12:09:36;;;;;;;5.55;2.90;;;14.10;99.90;;;;;;5084970;28;20044;-51
2022/11/05 12:12:09;;;;;;;6.38;3.13;;;13.90;99.90;;;;;;5086800;28;20089;-51
2022/11/05 12:14:48;;;;;;;6.57;2.75;;;13.70;99.90;;;;;;5086433;28;20477;-53
2022/11/05 12:17:50;;;;;;;6.45;2.40;;;13.50;99.90;;;;;;5086718;28;20085;-53
2022/11/05 12:20:25;;;;;;;3.40;2.22;;;13.40;99.90;;;;;;5083775;28;20574;-54
2022/11/05 12:23:40;;;;;;;10.50;2.70;;;13.30;99.90;;;;;;5086405;28;20115;-53
2022/11/05 12:26:17;;;;;;;8.13;2.78;;;13.10;99.90;;;;;;5086862;28;20054;-55
2022/11/05 12:29:27;;;;;;;6.60;3.10;;;13.00;99.90;;;;;;5086661;28;20527;-54
2022/11/05 12:32:09;;;;;;;5.13;2.72;;;12.80;99.90;;;;;;5086274;28;20036;-52
2022/11/05 12:35:09;;;;;;;6.07;3.88;;;12.70;99.90;;;;;;5085674;28;20072;-53
2022/11/05 12:37:39;;;;;;;4.18;2.85;;;12.60;99.90;;;;;;5086313;28;20040;-53
2022/11/05 12:40:20;;;;;;;6.03;2.67;;;12.60;99.90;;;;;;5086325;28;20141;-51
2022/11/05 12:43:00;;;;;;;9.27;2.72;;;12.50;99.90;;;;;;5085804;28;20128;-54
2022/11/05 12:45:58;;;;;;;4.82;2.70;;;12.50;99.90;;;;;;5086019;28;20101;-51
2022/11/05 12:48:40;;;;;;;6.97;2.65;;;12.50;99.90;;;;;;5064597;28;20585;-53
2022/11/05 12:51:27;;;;;;;5.93;2.92;;;12.40;99.90;;;;;;5086340;28;20043;-52
2022/11/05 12:54:02;;;;;;;7.10;2.60;;;12.40;99.90;;;;;;5085355;28;20040;-53
2022/11/05 12:56:39;;;;;;;8.25;3.03;;;12.30;99.90;;;;;;5085477;28;20567;-53
2022/11/05 12:59:23;;;;;;;3.95;3.45;;;12.30;99.90;;;;;;5085493;28;20036;-53
2022/11/05 13:01:55;;;;;;;7.93;3.78;;;12.30;99.90;;;;;;5065821;28;20041;-54
2022/11/05 13:04:44;;;;;;;5.95;4.22;;;12.20;99.90;;;;;;5066287;28;20422;-52
2022/11/05 13:07:15;;;;;;;5.75;4.25;;;12.20;99.90;;;;;;5085700;28;20040;-54
2022/11/05 13:10:00;;;;;;;5.00;3.70;;;12.20;99.90;;;;;;5085596;28;20032;-52
2022/11/05 13:12:29;;;;;;;11.75;4.78;;;12.10;99.90;;;;;;5086204;28;20059;-52
2022/11/05 13:14:59;;;;;;;9.68;4.90;;;12.10;99.90;;;;;;5083604;28;20032;-54
2022/11/05 13:17:52;;;;;;;15.63;5.80;;;12.10;99.90;;;;;;5086213;28;20040;-51
2022/11/05 13:20:28;;;;;;;10.40;4.47;;;12.10;99.90;;;;;;5086734;28;20544;-51
2022/11/05 13:23:09;;;;;;;6.73;4.03;;;12.10;99.90;;;;;;5089091;28;20051;-54
2022/11/05 13:25:40;;;;;;;5.07;4.05;;;12.10;99.90;;;;;;5086001;28;20827;-51
2022/11/05 13:28:28;;;;;;;11.75;5.05;;;12.10;99.90;;;;;;5085698;28;20036;-51
2022/11/05 13:30:58;;;;;;;6.22;3.50;;;12.10;99.90;;;;;;5085543;28;20039;-53
2022/11/05 13:33:38;;;;;;;7.97;3.22;;;12.00;99.90;;;;;;5085400;28;20040;-52
2022/11/05 13:39:11;;;;;;;7.22;3.30;;;12.10;99.90;;;;;;5085835;28;20126;-50
2022/11/05 13:41:43;;;;;;;7.13;3.70;;;12.10;99.90;;;;;;5084882;28;20123;-52
2022/11/05 13:44:18;;;;;;;10.80;4.75;;;12.10;99.90;;;;;;5085313;28;20386;-52
2022/11/05 13:47:08;;;;;;;11.75;4.60;;;12.00;99.90;;;;;;5085221;28;20193;-50
2022/11/05 13:50:01;;;;;;;11.25;3.97;;;12.00;99.90;;;;;;5084250;28;20615;-52
2022/11/05 13:53:02;;;;;;;13.20;4.80;;;12.00;99.90;;;;;;5084717;28;20051;-52
2022/11/05 13:55:46;;;;;;;10.15;4.28;;;11.90;99.90;;;;;;5082576;28;20070;-50
2022/11/05 13:58:43;;;;;;;8.93;4.57;;;11.90;99.90;;;;;;5085934;28;20043;-51
2022/11/05 14:01:28;;;;;;;5.43;3.72;;;11.80;99.90;;;;;;5085716;28;20568;-51